Aérodrome :
LOGIN :

S'inscrire | Disclaimer

   EN    FR    IT 

 










Légende :    VFR   VFR Marginal   IFR   IFR Intensif   IFR Très Intensif
Visi : 
Plafond : 
>= 8 km
>= 3000ft
5 à 8 km
1000 à 3000 ft
1500m à 5 km
500 à 1000 ft
800 à 1500m
200 à 500 ft
< 800m
< 200 ft
Symboles :   Orages  Brouillard  Fortes neiges  Fortes précipitations  Vent > 20 kt
SIGMETs :   Divers  Orages  Givrage  Turbulence  Onde Orograph.  Cendres Volcan.







- Altitude de l'aérodrome : 1585 ft
- Code IATA : SIR


LSGS - Sion

DERNIER METAR :
  • 200820Z 09005KT 9999 BKN100 M03/M08 Q1014

METARs EXPIRÉS :
  • 200750Z 07005KT 9999 BKN100 M03/M07 Q1014
  • 200720Z 06003KT 9999 SCT100 M04/M08 Q1014
  • 200650Z 08004KT 9999 SCT100 M04/M08 Q1014
  • 200620Z AUTO 04003KT CAVOK M04/M08 Q1013
  • 200550Z AUTO 07003KT CAVOK M05/M08 Q1013
  • 200520Z AUTO 08003KT CAVOK M05/M08 Q1013

TAF TAF LSGS
Valide du 20 à 06h jusqu'au 20 à 15h UTC


200525Z 2006/2015 VRB03KT CAVOK
BECMG 2010/2013 9999 SCT040 BKN090
Pas de NOTAMs connus pour ce terrain.



MET'MAP, la Météo Aéronautique d'un coup d'oeil ! - Copyright ORBIFLY Décembre 2007 - Disclaimer

ORBIFLY MET'MAP TEAM :

Programmation & Développement : Alexandra Zaïnal
Conception & Développement : Baudouin d'Aumeries
Co-Programmation & Développement : Marc-Olivier Méhu
Soutien technique & logistique : Manuel Goepfert

Contact : metmap@orbifly.com




SOURCES & CREDITS :

   NOAA